Time;durP1;ratioP1;P1;durP2;ratioP2;P2;SDS_P1;SDS_P2;PMS_P1;PMS_P2;Temp;Humidity;BMP_temperature;BMP_pressure;BME280_temperature;BME280_humidity;BME280_pressure;Samples;Min_cycle;Max_cycle;Signal;HPM_P1;HPM_P2
2022/04/03 00:00:42;;;;;;;4.33;3.93;;;;;;;;;;5095380;28;20201;-73
2022/04/03 00:03:11;;;;;;;4.20;3.80;;;;;;;;;;5102192;28;20209;-73
2022/04/03 00:05:43;;;;;;;6.20;4.13;;;;;;;;;;5094917;28;20228;-73
2022/04/03 00:08:12;;;;;;;5.00;3.67;;;;;;;;;;5096386;28;20232;-73
2022/04/03 00:10:41;;;;;;;5.47;4.00;;;;;;;;;;5095508;28;20228;-73
2022/04/03 00:13:10;;;;;;;3.93;3.57;;;;;;;;;;5103013;28;20275;-73
2022/04/03 00:15:41;;;;;;;5.47;3.90;;;;;;;;;;5093539;28;20202;-73
2022/04/03 00:18:09;;;;;;;4.70;4.03;;;;;;;;;;5103232;28;20217;-73
2022/04/03 00:20:38;;;;;;;4.33;3.93;;;;;;;;;;5099282;28;20205;-72
2022/04/03 00:23:08;;;;;;;4.47;4.07;;;;;;;;;;5102846;27;20206;-73
2022/04/03 00:25:37;;;;;;;4.77;4.17;;;;;;;;;;5101100;28;20254;-73
2022/04/03 00:28:05;;;;;;;6.60;4.10;;;;;;;;;;5105824;28;20221;-72
2022/04/03 00:30:34;;;;;;;6.37;4.63;;;;;;;;;;5104809;28;20210;-73
2022/04/03 00:33:02;;;;;;;9.03;5.47;;;;;;;;;;5103406;28;20205;-73
2022/04/03 00:35:31;;;;;;;7.60;4.93;;;;;;;;;;5094091;28;20209;-73
2022/04/03 00:37:59;;;;;;;5.13;4.60;;;;;;;;;;5095410;28;20217;-73
2022/04/03 00:40:29;;;;;;;5.50;4.83;;;;;;;;;;5097158;28;20202;-73
2022/04/03 00:42:58;;;;;;;5.17;4.53;;;;;;;;;;5096715;28;20730;-73
2022/04/03 00:45:26;;;;;;;5.80;4.53;;;;;;;;;;5093342;28;20205;-73
2022/04/03 00:47:56;;;;;;;6.37;5.10;;;;;;;;;;5096002;28;20222;-73
2022/04/03 00:50:24;;;;;;;5.73;5.00;;;;;;;;;;5096730;28;20208;-73
2022/04/03 00:52:53;;;;;;;6.03;5.10;;;;;;;;;;5103085;28;20206;-73
2022/04/03 00:55:21;;;;;;;6.73;5.30;;;;;;;;;;5092875;28;20198;-73
2022/04/03 00:57:51;;;;;;;6.90;5.70;;;;;;;;;;5092445;28;20750;-73
2022/04/03 01:00:19;;;;;;;7.30;5.63;;;;;;;;;;5092397;28;20251;-73
2022/04/03 01:02:47;;;;;;;7.87;6.20;;;;;;;;;;5097242;28;20202;-73
2022/04/03 01:05:16;;;;;;;7.50;6.03;;;;;;;;;;5093117;28;20197;-73
2022/04/03 01:07:45;;;;;;;7.07;5.27;;;;;;;;;;5092565;28;20263;-73
2022/04/03 01:10:13;;;;;;;7.63;5.77;;;;;;;;;;5091576;28;20219;-73
2022/04/03 01:12:42;;;;;;;6.50;5.57;;;;;;;;;;5103322;28;20253;-73
2022/04/03 01:15:20;;;;;;;8.23;6.10;;;;;;;;;;5092742;28;20292;-73
2022/04/03 01:17:48;;;;;;;7.07;6.13;;;;;;;;;;5097761;28;20218;-73
2022/04/03 01:20:18;;;;;;;6.90;5.80;;;;;;;;;;5112207;28;20205;-73
2022/04/03 01:22:50;;;;;;;8.87;6.03;;;;;;;;;;5097280;28;20556;-72
2022/04/03 01:25:20;;;;;;;7.90;5.97;;;;;;;;;;5112556;28;20262;-73
2022/04/03 01:27:49;;;;;;;7.40;5.40;;;;;;;;;;5091420;28;20236;-73
2022/04/03 01:30:17;;;;;;;7.30;5.33;;;;;;;;;;5092010;28;20217;-73
2022/04/03 01:32:46;;;;;;;7.97;6.03;;;;;;;;;;5100891;28;20227;-73
2022/04/03 01:35:14;;;;;;;7.03;6.07;;;;;;;;;;5111693;28;20262;-73
2022/04/03 01:37:43;;;;;;;6.17;5.57;;;;;;;;;;5092469;28;20558;-73
2022/04/03 01:40:12;;;;;;;6.50;5.90;;;;;;;;;;5092572;28;20236;-73
2022/04/03 01:42:41;;;;;;;7.20;6.23;;;;;;;;;;5103635;27;20209;-73
2022/04/03 01:45:10;;;;;;;7.27;6.23;;;;;;;;;;5092538;28;20202;-73
2022/04/03 01:47:39;;;;;;;8.37;6.33;;;;;;;;;;5098795;28;20270;-73
2022/04/03 01:50:07;;;;;;;7.23;5.80;;;;;;;;;;5095564;28;20208;-73
2022/04/03 01:52:36;;;;;;;7.97;5.70;;;;;;;;;;5105296;28;20228;-73
2022/04/03 01:55:05;;;;;;;6.13;5.40;;;;;;;;;;5096210;28;20278;-73
2022/04/03 01:57:33;;;;;;;7.77;6.23;;;;;;;;;;5106031;28;20266;-72
2022/04/03 02:00:05;;;;;;;7.47;6.20;;;;;;;;;;5095887;28;20616;-72
2022/04/03 02:02:34;;;;;;;10.10;6.07;;;;;;;;;;5106565;28;20207;-73
2022/04/03 02:05:03;;;;;;;7.90;6.00;;;;;;;;;;5095785;28;20608;-72
2022/04/03 02:07:33;;;;;;;8.60;6.20;;;;;;;;;;5101409;28;20247;-72
2022/04/03 02:10:01;;;;;;;7.10;6.40;;;;;;;;;;5108041;28;20197;-72
2022/04/03 02:12:29;;;;;;;7.80;6.30;;;;;;;;;;5107629;28;20208;-72
2022/04/03 02:14:58;;;;;;;8.03;6.40;;;;;;;;;;5095460;28;20230;-72
2022/04/03 02:17:28;;;;;;;8.23;6.97;;;;;;;;;;5107077;28;20621;-72
2022/04/03 02:19:56;;;;;;;9.57;6.77;;;;;;;;;;5095410;28;20634;-73
2022/04/03 02:22:25;;;;;;;7.60;6.77;;;;;;;;;;5101583;28;20197;-73
2022/04/03 02:24:53;;;;;;;7.63;6.53;;;;;;;;;;5114467;27;20260;-73
2022/04/03 02:27:22;;;;;;;7.33;6.40;;;;;;;;;;5106715;28;20744;-73
2022/04/03 02:29:50;;;;;;;8.80;6.80;;;;;;;;;;5115850;27;20595;-73
2022/04/03 02:32:21;;;;;;;7.87;6.90;;;;;;;;;;5108061;28;20258;-73
2022/04/03 02:34:51;;;;;;;7.57;6.53;;;;;;;;;;5115045;28;20201;-72
2022/04/03 02:37:19;;;;;;;9.50;7.30;;;;;;;;;;5101216;27;20267;-73
2022/04/03 02:39:48;;;;;;;9.47;7.10;;;;;;;;;;5108546;28;20260;-73
2022/04/03 02:42:16;;;;;;;8.53;7.57;;;;;;;;;;5103976;27;20221;-72
2022/04/03 02:44:44;;;;;;;7.97;6.97;;;;;;;;;;5114623;28;20292;-73
2022/04/03 02:47:14;;;;;;;8.67;7.10;;;;;;;;;;5105379;28;20222;-73
2022/04/03 02:49:42;;;;;;;9.70;7.57;;;;;;;;;;5095264;28;20221;-72
2022/04/03 02:52:12;;;;;;;10.40;7.33;;;;;;;;;;5105264;27;20262;-73
2022/04/03 02:54:41;;;;;;;8.50;7.30;;;;;;;;;;5095140;28;20206;-73
2022/04/03 02:57:09;;;;;;;7.87;6.93;;;;;;;;;;5098721;28;20214;-73
2022/04/03 02:59:38;;;;;;;10.17;7.90;;;;;;;;;;5094700;28;20212;-73
2022/04/03 03:02:06;;;;;;;7.87;7.03;;;;;;;;;;5100078;28;20216;-73
2022/04/03 03:04:35;;;;;;;9.93;7.80;;;;;;;;;;5113278;28;20212;-73
2022/04/03 03:07:04;;;;;;;8.77;7.47;;;;;;;;;;5104137;28;20689;-73
2022/04/03 03:09:34;;;;;;;10.50;7.30;;;;;;;;;;5111598;28;20262;-72
2022/04/03 03:12:02;;;;;;;9.20;7.77;;;;;;;;;;5101579;28;20206;-72
2022/04/03 03:14:31;;;;;;;8.57;7.13;;;;;;;;;;5094415;28;20262;-73
2022/04/03 03:17:01;;;;;;;8.97;7.37;;;;;;;;;;5099691;28;20267;-73
2022/04/03 03:19:29;;;;;;;8.23;6.97;;;;;;;;;;5094275;28;20221;-73
2022/04/03 03:21:58;;;;;;;8.47;6.57;;;;;;;;;;5102587;28;20238;-73
2022/04/03 03:24:26;;;;;;;10.47;7.37;;;;;;;;;;5110161;28;20197;-73
2022/04/03 03:26:56;;;;;;;7.23;6.33;;;;;;;;;;5104911;28;20216;-73
2022/04/03 03:29:24;;;;;;;10.67;7.00;;;;;;;;;;5097710;28;20237;-73
2022/04/03 03:31:53;;;;;;;8.83;6.90;;;;;;;;;;5101828;28;20662;-72
2022/04/03 03:34:21;;;;;;;7.93;6.90;;;;;;;;;;5097625;28;20216;-73
2022/04/03 03:36:50;;;;;;;8.40;6.70;;;;;;;;;;5099024;28;20221;-72
2022/04/03 03:39:18;;;;;;;6.97;6.17;;;;;;;;;;5097014;28;20201;-73
2022/04/03 03:41:47;;;;;;;8.40;6.70;;;;;;;;;;5099076;27;20217;-73
2022/04/03 03:44:16;;;;;;;6.83;6.13;;;;;;;;;;5094714;28;20251;-73
2022/04/03 03:46:45;;;;;;;7.67;6.33;;;;;;;;;;5109038;28;20218;-73
2022/04/03 03:49:14;;;;;;;7.10;6.40;;;;;;;;;;5109204;28;20232;-73
2022/04/03 03:51:42;;;;;;;9.77;6.10;;;;;;;;;;5104058;27;20201;-73
2022/04/03 03:54:11;;;;;;;8.50;6.40;;;;;;;;;;5093598;28;20685;-73
2022/04/03 03:56:39;;;;;;;8.50;6.23;;;;;;;;;;5099245;28;20275;-73
2022/04/03 03:59:08;;;;;;;7.47;6.40;;;;;;;;;;5099281;28;20259;-73
2022/04/03 04:01:39;;;;;;;8.87;6.07;;;;;;;;;;5099731;27;20278;-73
2022/04/03 04:04:07;;;;;;;7.20;5.93;;;;;;;;;;5104884;28;20217;-74
2022/04/03 04:06:36;;;;;;;7.33;6.20;;;;;;;;;;5097049;28;20361;-73
2022/04/03 04:09:04;;;;;;;8.97;6.33;;;;;;;;;;5093698;28;20298;-73
2022/04/03 04:11:32;;;;;;;6.87;5.97;;;;;;;;;;5100111;28;20205;-73
2022/04/03 04:14:01;;;;;;;7.27;6.30;;;;;;;;;;5093229;28;20210;-73
2022/04/03 04:16:29;;;;;;;7.17;6.37;;;;;;;;;;5100353;28;20286;-73
2022/04/03 04:18:59;;;;;;;7.00;6.20;;;;;;;;;;5106409;28;20680;-73
2022/04/03 04:21:27;;;;;;;7.63;5.93;;;;;;;;;;5100239;28;20198;-73
2022/04/03 04:23:56;;;;;;;9.63;6.30;;;;;;;;;;5100762;28;20211;-74
2022/04/03 04:26:25;;;;;;;7.83;6.23;;;;;;;;;;5097586;28;20287;-73
2022/04/03 04:28:53;;;;;;;8.97;6.50;;;;;;;;;;5101017;28;20213;-73
2022/04/03 04:31:22;;;;;;;7.33;6.13;;;;;;;;;;5096362;28;20197;-73
2022/04/03 04:33:50;;;;;;;6.87;5.93;;;;;;;;;;5100883;28;20233;-73
2022/04/03 04:36:20;;;;;;;8.50;6.53;;;;;;;;;;5103100;28;20225;-73
2022/04/03 04:38:48;;;;;;;8.13;6.60;;;;;;;;;;5093579;28;20209;-73
2022/04/03 04:41:17;;;;;;;7.47;6.63;;;;;;;;;;5097659;28;20205;-74
2022/04/03 04:43:45;;;;;;;9.63;7.17;;;;;;;;;;5104442;28;20213;-74
2022/04/03 04:46:14;;;;;;;8.63;6.30;;;;;;;;;;5110293;28;20205;-73
2022/04/03 04:48:42;;;;;;;9.60;6.67;;;;;;;;;;5098934;28;20308;-73
2022/04/03 04:51:11;;;;;;;8.70;7.10;;;;;;;;;;5092394;28;20218;-73
2022/04/03 04:53:40;;;;;;;7.83;7.03;;;;;;;;;;5102044;28;20214;-73
2022/04/03 04:56:10;;;;;;;7.97;7.17;;;;;;;;;;5095016;28;20202;-73
2022/04/03 04:58:38;;;;;;;9.23;6.70;;;;;;;;;;5103665;28;20258;-73
2022/04/03 05:01:07;;;;;;;12.93;7.30;;;;;;;;;;5110583;28;20239;-74
2022/04/03 05:03:35;;;;;;;10.33;7.40;;;;;;;;;;5100082;28;20204;-73
2022/04/03 05:06:04;;;;;;;10.40;6.90;;;;;;;;;;5096713;28;20208;-73
2022/04/03 05:08:35;;;;;;;10.70;7.07;;;;;;;;;;5109581;28;20201;-73
2022/04/03 05:11:06;;;;;;;8.87;7.33;;;;;;;;;;5111692;28;20225;-72
2022/04/03 05:13:34;;;;;;;8.73;7.40;;;;;;;;;;5104489;28;20196;-73
2022/04/03 05:16:03;;;;;;;10.33;8.17;;;;;;;;;;5109739;28;20202;-72
2022/04/03 05:18:36;;;;;;;7.73;6.93;;;;;;;;;;5094462;28;20243;-73
2022/04/03 05:21:05;;;;;;;9.63;7.60;;;;;;;;;;5095722;28;20238;-73
2022/04/03 05:23:34;;;;;;;9.07;7.10;;;;;;;;;;5103123;28;20737;-73
2022/04/03 05:26:03;;;;;;;8.53;7.13;;;;;;;;;;5113065;27;20203;-73
2022/04/03 05:28:35;;;;;;;10.77;7.87;;;;;;;;;;5106416;28;20208;-73
2022/04/03 05:31:04;;;;;;;9.03;7.63;;;;;;;;;;5102299;27;20218;-73
2022/04/03 05:33:32;;;;;;;9.90;8.00;;;;;;;;;;5104484;28;20728;-73
2022/04/03 05:36:01;;;;;;;9.87;7.80;;;;;;;;;;5109668;28;20200;-73
2022/04/03 05:38:29;;;;;;;10.73;7.83;;;;;;;;;;5097624;28;20634;-73
2022/04/03 05:40:58;;;;;;;8.77;7.87;;;;;;;;;;5100336;28;20656;-73
2022/04/03 05:43:26;;;;;;;9.07;7.10;;;;;;;;;;5106594;28;20247;-72
2022/04/03 05:45:56;;;;;;;8.37;7.43;;;;;;;;;;5098284;28;20205;-73
2022/04/03 05:48:24;;;;;;;10.03;7.87;;;;;;;;;;5103031;28;20226;-73
2022/04/03 05:50:53;;;;;;;8.07;7.27;;;;;;;;;;5097426;28;20221;-73
2022/04/03 05:53:21;;;;;;;8.90;7.30;;;;;;;;;;5096059;28;20205;-73
2022/04/03 05:55:54;;;;;;;9.63;7.60;;;;;;;;;;5098135;28;20224;-73
2022/04/03 05:58:24;;;;;;;7.53;6.73;;;;;;;;;;5102919;28;20224;-73
2022/04/03 06:00:52;;;;;;;8.90;7.10;;;;;;;;;;5100564;27;20256;-73
2022/04/03 06:03:22;;;;;;;7.47;6.67;;;;;;;;;;5097669;28;20210;-73
2022/04/03 06:05:51;;;;;;;8.90;7.07;;;;;;;;;;5103548;27;20210;-73
2022/04/03 06:08:19;;;;;;;8.20;7.07;;;;;;;;;;5104840;28;20223;-73
2022/04/03 06:10:48;;;;;;;8.77;7.47;;;;;;;;;;5098212;27;20217;-73
2022/04/03 06:13:17;;;;;;;10.73;7.97;;;;;;;;;;5109650;28;20252;-73
2022/04/03 06:15:47;;;;;;;7.40;6.70;;;;;;;;;;5113590;28;20659;-72
2022/04/03 06:18:16;;;;;;;8.30;7.30;;;;;;;;;;5106640;28;20236;-72
2022/04/03 06:20:47;;;;;;;10.80;7.70;;;;;;;;;;5103092;27;20293;-73
2022/04/03 06:23:16;;;;;;;9.13;7.00;;;;;;;;;;5100618;28;20201;-73
2022/04/03 06:25:45;;;;;;;9.10;6.90;;;;;;;;;;5102609;28;20194;-73
2022/04/03 06:28:13;;;;;;;8.97;7.17;;;;;;;;;;5108468;28;20226;-73
2022/04/03 06:30:42;;;;;;;9.10;6.80;;;;;;;;;;5109361;28;20689;-73
2022/04/03 06:33:11;;;;;;;7.03;6.33;;;;;;;;;;5109298;28;20234;-73
2022/04/03 06:35:39;;;;;;;6.83;6.10;;;;;;;;;;5110794;27;20209;-74
2022/04/03 06:38:13;;;;;;;5.73;5.20;;;;;;;;;;5106408;28;20309;-73
2022/04/03 06:40:45;;;;;;;7.10;5.20;;;;;;;;;;5100130;28;20241;-73
2022/04/03 06:43:13;;;;;;;6.13;4.23;;;;;;;;;;5107529;28;20664;-73
2022/04/03 06:45:42;;;;;;;6.47;3.80;;;;;;;;;;5113730;28;20699;-73
2022/04/03 06:48:11;;;;;;;4.63;3.50;;;;;;;;;;5109777;28;20227;-72
2022/04/03 06:50:40;;;;;;;4.53;3.50;;;;;;;;;;5112476;28;20223;-72
2022/04/03 06:53:08;;;;;;;5.10;3.50;;;;;;;;;;5105727;28;20572;-73
2022/04/03 06:55:38;;;;;;;3.90;3.10;;;;;;;;;;5104917;27;20246;-72
2022/04/03 06:58:07;;;;;;;4.50;3.13;;;;;;;;;;5112506;27;20228;-72
2022/04/03 07:00:37;;;;;;;9.07;2.93;;;;;;;;;;5113492;28;20200;-73
2022/04/03 07:03:05;;;;;;;4.43;2.80;;;;;;;;;;5109995;28;20201;-72
2022/04/03 07:05:34;;;;;;;3.40;3.03;;;;;;;;;;5097885;27;20200;-72
2022/04/03 07:08:03;;;;;;;3.97;2.43;;;;;;;;;;5099611;28;20222;-72
2022/04/03 07:10:31;;;;;;;3.27;2.60;;;;;;;;;;5095572;27;20222;-72
2022/04/03 07:13:02;;;;;;;3.10;2.60;;;;;;;;;;5104648;28;20702;-72
2022/04/03 07:15:33;;;;;;;3.10;2.60;;;;;;;;;;5108737;28;20202;-72
2022/04/03 07:18:01;;;;;;;3.77;2.87;;;;;;;;;;5102075;27;20214;-72
2022/04/03 07:20:30;;;;;;;3.67;2.80;;;;;;;;;;5102493;28;20203;-72
2022/04/03 07:22:59;;;;;;;4.70;2.97;;;;;;;;;;5106093;28;20207;-72
2022/04/03 07:25:27;;;;;;;4.50;2.60;;;;;;;;;;5100905;27;20205;-72
2022/04/03 07:27:56;;;;;;;4.30;2.77;;;;;;;;;;5104037;27;20220;-72
2022/04/03 07:30:26;;;;;;;2.63;2.43;;;;;;;;;;5111633;27;20272;-72
2022/04/03 07:32:54;;;;;;;3.20;2.70;;;;;;;;;;5099979;28;20204;-72
2022/04/03 07:35:22;;;;;;;4.13;2.80;;;;;;;;;;5111933;28;20208;-72
2022/04/03 07:37:51;;;;;;;5.37;2.77;;;;;;;;;;5105280;28;20231;-72
2022/04/03 07:40:19;;;;;;;3.37;2.43;;;;;;;;;;5098369;28;20200;-72
2022/04/03 07:43:08;;;;;;;4.17;2.60;;;;;;;;;;5101906;28;20229;-72
2022/04/03 07:45:37;;;;;;;3.23;2.37;;;;;;;;;;5110937;28;20929;-72
2022/04/03 07:48:06;;;;;;;3.40;2.63;;;;;;;;;;5098901;28;20706;-72
2022/04/03 07:50:35;;;;;;;2.87;2.17;;;;;;;;;;5093667;28;20726;-72
2022/04/03 07:53:04;;;;;;;5.13;2.30;;;;;;;;;;5100694;28;20241;-73
2022/04/03 07:55:32;;;;;;;3.83;2.20;;;;;;;;;;5108213;27;20215;-72
2022/04/03 07:58:01;;;;;;;5.93;2.30;;;;;;;;;;5092714;28;20266;-72
2022/04/03 08:00:29;;;;;;;2.90;1.97;;;;;;;;;;5093788;28;20219;-72
2022/04/03 08:02:59;;;;;;;4.27;2.50;;;;;;;;;;5099077;28;20248;-72
2022/04/03 08:05:27;;;;;;;3.53;2.40;;;;;;;;;;5110436;27;20212;-72
2022/04/03 08:07:56;;;;;;;3.73;2.30;;;;;;;;;;5100130;28;20219;-72
2022/04/03 08:10:24;;;;;;;2.20;1.90;;;;;;;;;;5095111;28;20213;-72
2022/04/03 08:12:53;;;;;;;4.17;2.40;;;;;;;;;;5105268;28;20625;-72
2022/04/03 08:15:22;;;;;;;3.17;2.30;;;;;;;;;;5096073;28;20215;-72
2022/04/03 08:17:50;;;;;;;2.43;2.10;;;;;;;;;;5104545;28;20561;-72
2022/04/03 08:20:20;;;;;;;2.30;2.10;;;;;;;;;;5102480;28;20672;-73
2022/04/03 08:22:50;;;;;;;2.33;1.90;;;;;;;;;;5107351;28;20228;-73
2022/04/03 08:25:18;;;;;;;2.90;2.13;;;;;;;;;;5093023;28;20208;-73
2022/04/03 08:27:48;;;;;;;3.57;2.20;;;;;;;;;;5100343;28;20219;-72
2022/04/03 08:30:18;;;;;;;2.20;2.00;;;;;;;;;;5092756;28;20208;-72
2022/04/03 08:32:46;;;;;;;3.37;2.00;;;;;;;;;;5104350;28;20216;-72
2022/04/03 08:35:16;;;;;;;2.37;2.17;;;;;;;;;;5109258;28;20212;-72
2022/04/03 08:37:46;;;;;;;2.57;1.80;;;;;;;;;;5103088;28;20296;-72
2022/04/03 08:40:19;;;;;;;3.90;1.83;;;;;;;;;;5110632;28;20674;-73
2022/04/03 08:42:47;;;;;;;1.73;1.57;;;;;;;;;;5093875;28;20193;-72
2022/04/03 08:45:15;;;;;;;2.97;1.60;;;;;;;;;;5105657;28;20205;-72
2022/04/03 08:47:45;;;;;;;3.10;1.77;;;;;;;;;;5101049;28;20221;-72
2022/04/03 08:50:14;;;;;;;2.70;1.73;;;;;;;;;;5097733;28;20213;-72
2022/04/03 08:52:44;;;;;;;1.97;1.77;;;;;;;;;;5102195;28;20273;-72
2022/04/03 08:55:15;;;;;;;2.63;1.60;;;;;;;;;;5102995;28;20713;-73
2022/04/03 08:57:49;;;;;;;2.30;1.60;;;;;;;;;;5112694;27;20251;-72
2022/04/03 09:00:18;;;;;;;2.70;1.57;;;;;;;;;;5115224;27;20223;-72
2022/04/03 09:02:47;;;;;;;2.80;1.33;;;;;;;;;;5097015;28;20241;-73
2022/04/03 09:05:16;;;;;;;2.10;1.67;;;;;;;;;;5099247;28;20976;-72
2022/04/03 09:07:45;;;;;;;4.23;1.67;;;;;;;;;;5100917;28;20358;-73
2022/04/03 09:10:16;;;;;;;3.13;1.70;;;;;;;;;;5096378;28;20208;-72
2022/04/03 09:12:46;;;;;;;2.13;1.93;;;;;;;;;;5106292;27;20553;-72
2022/04/03 09:15:15;;;;;;;1.93;1.50;;;;;;;;;;5105507;27;20621;-72
2022/04/03 09:17:45;;;;;;;3.63;1.63;;;;;;;;;;5104119;28;20224;-72
2022/04/03 09:20:14;;;;;;;2.03;1.40;;;;;;;;;;5103274;28;20197;-72
2022/04/03 09:22:43;;;;;;;2.53;1.83;;;;;;;;;;5099269;27;20205;-72
2022/04/03 09:25:13;;;;;;;2.87;1.70;;;;;;;;;;5107726;28;20216;-72
2022/04/03 09:27:49;;;;;;;3.73;1.77;;;;;;;;;;5098908;28;20237;-72
2022/04/03 09:30:19;;;;;;;2.77;1.60;;;;;;;;;;5108767;28;20671;-72
2022/04/03 09:32:48;;;;;;;3.93;1.60;;;;;;;;;;5105446;28;20221;-72
2022/04/03 09:35:17;;;;;;;2.00;1.60;;;;;;;;;;5108579;27;20324;-72
2022/04/03 09:38:04;;;;;;;20.27;8.33;;;;;;;;;;5097321;28;21024;-72
2022/04/03 09:40:33;;;;;;;3.47;1.50;;;;;;;;;;5098532;27;20212;-72
2022/04/03 09:43:16;;;;;;;7.20;2.70;;;;;;;;;;5104292;28;20208;-72
2022/04/03 09:45:46;;;;;;;4.30;2.30;;;;;;;;;;5102184;27;20258;-72
2022/04/03 09:48:22;;;;;;;2.60;1.90;;;;;;;;;;5104202;28;20277;-72
2022/04/03 09:51:04;;;;;;;3.70;1.70;;;;;;;;;;5098375;28;20204;-72
2022/04/03 09:53:43;;;;;;;6.10;2.63;;;;;;;;;;5108037;27;20230;-73
2022/04/03 09:56:12;;;;;;;3.37;1.53;;;;;;;;;;5111032;27;20198;-72
2022/04/03 09:58:58;;;;;;;5.70;3.30;;;;;;;;;;5109271;27;20217;-72
2022/04/03 10:01:28;;;;;;;2.87;1.50;;;;;;;;;;4750889;27;9999658;-72
2022/04/03 10:03:57;;;;;;;4.83;1.70;;;;;;;;;;5100289;28;20206;-73
2022/04/03 10:06:26;;;;;;;3.03;1.60;;;;;;;;;;5101811;28;20197;-73
2022/04/03 10:08:54;;;;;;;3.03;1.60;;;;;;;;;;5098987;28;20676;-72
2022/04/03 10:11:23;;;;;;;2.70;1.60;;;;;;;;;;5095507;27;20201;-73
2022/04/03 10:13:51;;;;;;;1.70;1.40;;;;;;;;;;5101869;28;20274;-72
2022/04/03 10:16:22;;;;;;;2.43;1.60;;;;;;;;;;5100918;28;20765;-73
2022/04/03 10:18:51;;;;;;;2.83;1.80;;;;;;;;;;5111709;27;20196;-72
2022/04/03 10:21:23;;;;;;;1.90;1.57;;;;;;;;;;5096783;27;20251;-72
2022/04/03 10:23:52;;;;;;;1.80;1.70;;;;;;;;;;5101845;28;20196;-72
2022/04/03 10:26:22;;;;;;;3.50;1.90;;;;;;;;;;5105582;27;20197;-72
2022/04/03 10:28:54;;;;;;;2.03;1.73;;;;;;;;;;5107520;28;20205;-72
2022/04/03 10:31:23;;;;;;;2.93;1.90;;;;;;;;;;5104788;28;20201;-72
2022/04/03 10:33:53;;;;;;;2.90;1.70;;;;;;;;;;5098899;28;20317;-72
2022/04/03 10:36:26;;;;;;;1.80;1.60;;;;;;;;;;5100551;28;20294;-72
2022/04/03 10:39:00;;;;;;;2.00;1.40;;;;;;;;;;5103793;28;20206;-72
2022/04/03 10:41:29;;;;;;;4.30;1.60;;;;;;;;;;5104627;28;20209;-72
2022/04/03 10:44:14;;;;;;;2.27;1.50;;;;;;;;;;5111173;28;20648;-72
2022/04/03 10:47:01;;;;;;;2.23;1.40;;;;;;;;;;5098715;28;20225;-72
2022/04/03 10:49:32;;;;;;;3.67;1.77;;;;;;;;;;5107362;28;20250;-72
2022/04/03 10:52:02;;;;;;;2.27;1.70;;;;;;;;;;5103454;28;20254;-72
2022/04/03 10:54:31;;;;;;;2.70;1.40;;;;;;;;;;5097208;28;20225;-73
2022/04/03 10:57:15;;;;;;;3.63;1.87;;;;;;;;;;5094767;28;20640;-72
2022/04/03 10:59:43;;;;;;;3.63;1.70;;;;;;;;;;5086226;28;20580;-72
2022/04/03 11:02:14;;;;;;;2.73;1.70;;;;;;;;;;5099189;27;20255;-72
2022/04/03 11:04:44;;;;;;;2.77;1.80;;;;;;;;;;5099762;28;20243;-72
2022/04/03 11:07:17;;;;;;;2.63;1.60;;;;;;;;;;5109565;28;20607;-72
2022/04/03 11:09:48;;;;;;;3.20;2.07;;;;;;;;;;5095432;28;20672;-72
2022/04/03 11:12:41;;;;;;;2.90;1.57;;;;;;;;;;5106188;28;20204;-73
2022/04/03 11:15:13;;;;;;;2.30;1.70;;;;;;;;;;5097433;28;20197;-73
2022/04/03 11:17:49;;;;;;;2.30;1.60;;;;;;;;;;5099633;28;20233;-72
2022/04/03 11:20:35;;;;;;;2.87;1.63;;;;;;;;;;5105108;27;20698;-72
2022/04/03 11:23:05;;;;;;;5.33;1.80;;;;;;;;;;5093115;28;20205;-72
2022/04/03 11:25:33;;;;;;;1.93;1.60;;;;;;;;;;5102415;28;20201;-72
2022/04/03 11:28:03;;;;;;;2.33;1.70;;;;;;;;;;5099957;28;20239;-72
2022/04/03 11:30:32;;;;;;;3.33;1.70;;;;;;;;;;5096694;27;20681;-72
2022/04/03 11:33:01;;;;;;;2.57;1.53;;;;;;;;;;5102980;28;20711;-72
2022/04/03 11:35:38;;;;;;;4.07;1.77;;;;;;;;;;5097603;27;20220;-72
2022/04/03 11:38:06;;;;;;;2.03;1.70;;;;;;;;;;5102130;27;20224;-73
2022/04/03 11:40:36;;;;;;;3.20;1.70;;;;;;;;;;5104911;28;20365;-72
2022/04/03 11:43:11;;;;;;;3.93;2.00;;;;;;;;;;5104404;28;20190;-73
2022/04/03 11:45:39;;;;;;;2.03;1.50;;;;;;;;;;5094127;28;20212;-73
2022/04/03 11:48:15;;;;;;;1.37;1.27;;;;;;;;;;5094698;28;20217;-72
2022/04/03 11:50:45;;;;;;;2.43;1.33;;;;;;;;;;5110095;28;20297;-73
2022/04/03 11:53:14;;;;;;;3.17;1.10;;;;;;;;;;5105359;28;20713;-73
2022/04/03 11:55:43;;;;;;;2.37;1.50;;;;;;;;;;5107504;28;20197;-72
2022/04/03 11:58:12;;;;;;;2.77;1.90;;;;;;;;;;5106810;27;20269;-72
2022/04/03 12:00:46;;;;;;;3.43;1.60;;;;;;;;;;5096292;28;20201;-72
2022/04/03 12:03:14;;;;;;;4.57;1.97;;;;;;;;;;5106723;28;20612;-72
2022/04/03 12:05:45;;;;;;;4.33;3.77;;;;;;;;;;5108673;28;20620;-73
2022/04/03 12:08:14;;;;;;;2.90;2.13;;;;;;;;;;5092780;28;20221;-73
2022/04/03 12:10:42;;;;;;;2.20;1.80;;;;;;;;;;5093082;28;20201;-72
2022/04/03 12:13:17;;;;;;;3.43;1.60;;;;;;;;;;5092380;28;20194;-72
2022/04/03 12:15:46;;;;;;;1.73;1.63;;;;;;;;;;5092785;28;20201;-73
2022/04/03 12:18:26;;;;;;;2.63;1.77;;;;;;;;;;5098282;28;20707;-73
2022/04/03 12:20:56;;;;;;;3.07;1.70;;;;;;;;;;5102490;27;20657;-72
2022/04/03 12:23:24;;;;;;;2.67;1.50;;;;;;;;;;5107305;28;20201;-73
2022/04/03 12:25:52;;;;;;;2.70;1.30;;;;;;;;;;5095567;28;20237;-73
2022/04/03 12:28:22;;;;;;;2.13;1.50;;;;;;;;;;5099570;28;20228;-73
2022/04/03 12:30:59;;;;;;;2.73;2.00;;;;;;;;;;5103598;27;20198;-73
2022/04/03 12:33:27;;;;;;;3.37;1.97;;;;;;;;;;5099638;28;20672;-72
2022/04/03 12:35:58;;;;;;;5.17;1.50;;;;;;;;;;5114078;27;20209;-73
2022/04/03 12:38:33;;;;;;;1.77;1.37;;;;;;;;;;5108177;28;20234;-73
2022/04/03 12:41:03;;;;;;;2.87;1.40;;;;;;;;;;5101870;28;20236;-72
2022/04/03 12:43:43;;;;;;;1.87;1.60;;;;;;;;;;5097312;28;20212;-74
2022/04/03 12:46:12;;;;;;;3.63;1.80;;;;;;;;;;5106278;28;20212;-74
2022/04/03 12:48:42;;;;;;;2.77;1.40;;;;;;;;;;5101305;28;20209;-73
2022/04/03 12:51:12;;;;;;;3.00;1.80;;;;;;;;;;5105705;28;20208;-73
2022/04/03 12:53:51;;;;;;;4.17;1.87;;;;;;;;;;5100737;28;20210;-73
2022/04/03 12:58:24;;;;;;;5.37;1.80;;;;;;;;;;5103124;28;20208;-73
2022/04/03 12:59:19;;;;;;;2.50;1.80;;;;;;;;;;5102333;28;20599;-72
2022/04/03 13:01:52;;;;;;;3.10;1.60;;;;;;;;;;5096416;28;20609;-73
2022/04/03 13:04:31;;;;;;;1.97;1.50;;;;;;;;;;5091931;28;20220;-72
2022/04/03 13:07:02;;;;;;;1.83;1.40;;;;;;;;;;5095570;28;20222;-72
2022/04/03 13:09:31;;;;;;;2.70;1.77;;;;;;;;;;5096543;28;20293;-72
2022/04/03 13:11:59;;;;;;;2.57;1.90;;;;;;;;;;5096673;28;20201;-72
2022/04/03 13:14:33;;;;;;;5.47;1.93;;;;;;;;;;5093249;28;20354;-72
2022/04/03 13:17:04;;;;;;;5.20;1.60;;;;;;;;;;5104207;28;20230;-73
2022/04/03 13:19:35;;;;;;;2.43;1.50;;;;;;;;;;5102026;28;20743;-73
2022/04/03 13:22:06;;;;;;;2.40;1.50;;;;;;;;;;5101928;28;20208;-73
2022/04/03 13:24:35;;;;;;;4.20;1.50;;;;;;;;;;5095653;28;20198;-73
2022/04/03 13:27:04;;;;;;;4.50;1.87;;;;;;;;;;5100429;28;20276;-73
2022/04/03 13:29:34;;;;;;;2.67;1.60;;;;;;;;;;5093097;28;20213;-72
2022/04/03 13:32:02;;;;;;;2.23;1.60;;;;;;;;;;5093685;28;20205;-73
2022/04/03 13:34:31;;;;;;;2.63;1.90;;;;;;;;;;5102535;28;20278;-72
2022/04/03 13:36:59;;;;;;;3.73;1.83;;;;;;;;;;5097772;28;20292;-73
2022/04/03 13:39:29;;;;;;;3.50;2.20;;;;;;;;;;5096904;28;20205;-73
2022/04/03 13:42:02;;;;;;;5.57;3.83;;;;;;;;;;5099866;28;20545;-73
2022/04/03 13:44:31;;;;;;;6.03;2.20;;;;;;;;;;5102130;28;20611;-73
2022/04/03 13:47:02;;;;;;;3.47;2.53;;;;;;;;;;5103950;28;20266;-73
2022/04/03 13:49:31;;;;;;;4.23;2.37;;;;;;;;;;5097380;28;20607;-73
2022/04/03 13:51:59;;;;;;;3.20;2.90;;;;;;;;;;5103235;27;20607;-73
2022/04/03 13:54:28;;;;;;;3.27;2.23;;;;;;;;;;5098298;28;20230;-73
2022/04/03 13:56:58;;;;;;;5.57;2.10;;;;;;;;;;5108599;28;20775;-73
2022/04/03 13:59:26;;;;;;;3.53;2.33;;;;;;;;;;5107927;27;20209;-73
2022/04/03 14:01:54;;;;;;;3.90;2.30;;;;;;;;;;5107856;28;20606;-73
2022/04/03 14:04:23;;;;;;;3.87;2.70;;;;;;;;;;5104312;28;20261;-73
2022/04/03 14:06:51;;;;;;;3.67;2.40;;;;;;;;;;5103281;28;20688;-73
2022/04/03 14:09:20;;;;;;;5.40;2.60;;;;;;;;;;5095607;28;20248;-72
2022/04/03 14:11:48;;;;;;;3.47;2.43;;;;;;;;;;5097788;27;20213;-72
2022/04/03 14:14:18;;;;;;;3.63;2.33;;;;;;;;;;5100136;28;20239;-72
2022/04/03 14:16:47;;;;;;;4.10;3.07;;;;;;;;;;5102678;28;20223;-73
2022/04/03 14:19:15;;;;;;;3.20;2.47;;;;;;;;;;5115413;28;20207;-72
2022/04/03 14:21:44;;;;;;;4.70;2.23;;;;;;;;;;5109204;28;20543;-72
2022/04/03 14:24:12;;;;;;;4.37;2.40;;;;;;;;;;5102513;28;20608;-72
2022/04/03 14:26:45;;;;;;;5.33;2.30;;;;;;;;;;5099795;28;20277;-72
2022/04/03 14:29:13;;;;;;;4.20;2.17;;;;;;;;;;5097803;28;20216;-72
2022/04/03 14:31:43;;;;;;;3.37;2.40;;;;;;;;;;5098577;27;20337;-72
2022/04/03 14:34:12;;;;;;;3.07;2.40;;;;;;;;;;5095351;28;20619;-72
2022/04/03 14:36:40;;;;;;;3.43;2.33;;;;;;;;;;5097332;28;20229;-73
2022/04/03 14:39:09;;;;;;;4.50;2.10;;;;;;;;;;5105818;28;20201;-73
2022/04/03 14:41:37;;;;;;;5.77;1.73;;;;;;;;;;5102788;28;20206;-73
2022/04/03 14:44:07;;;;;;;3.57;1.70;;;;;;;;;;5094560;28;20275;-72
2022/04/03 14:46:36;;;;;;;1.90;1.70;;;;;;;;;;5101146;27;20262;-72
2022/04/03 14:49:06;;;;;;;3.73;2.07;;;;;;;;;;5098209;28;20194;-73
2022/04/03 14:51:42;;;;;;;2.23;1.80;;;;;;;;;;5098708;28;20246;-73
2022/04/03 14:54:12;;;;;;;5.03;2.03;;;;;;;;;;5102011;28;20814;-72
2022/04/03 14:56:41;;;;;;;2.03;1.87;;;;;;;;;;5106616;27;20236;-73
2022/04/03 14:59:10;;;;;;;5.10;1.73;;;;;;;;;;5099989;27;20202;-72